sensor_id;sensor_type;location;lat;lon;timestamp;P1;durP1;ratioP1;P2;durP2;ratioP2
16115;SDS011;8162;47.104;15.432;2022-12-24T00:01:08;8.57;;;6.17;;
16115;SDS011;8162;47.104;15.432;2022-12-24T00:03:35;6.67;;;5.93;;
16115;SDS011;8162;47.104;15.432;2022-12-24T00:06:05;7.23;;;5.80;;
16115;SDS011;8162;47.104;15.432;2022-12-24T00:08:32;10.03;;;6.70;;
16115;SDS011;8162;47.104;15.432;2022-12-24T00:10:58;7.30;;;5.60;;
16115;SDS011;8162;47.104;15.432;2022-12-24T00:13:23;7.33;;;5.40;;
16115;SDS011;8162;47.104;15.432;2022-12-24T00:15:49;10.43;;;7.03;;
16115;SDS011;8162;47.104;15.432;2022-12-24T00:18:15;8.17;;;6.47;;
16115;SDS011;8162;47.104;15.432;2022-12-24T00:20:44;9.20;;;6.83;;
16115;SDS011;8162;47.104;15.432;2022-12-24T00:23:12;10.27;;;6.77;;
16115;SDS011;8162;47.104;15.432;2022-12-24T00:25:38;8.13;;;6.57;;
16115;SDS011;8162;47.104;15.432;2022-12-24T00:28:03;10.73;;;7.27;;
16115;SDS011;8162;47.104;15.432;2022-12-24T00:30:29;9.83;;;7.63;;
16115;SDS011;8162;47.104;15.432;2022-12-24T00:32:55;11.73;;;7.83;;
16115;SDS011;8162;47.104;15.432;2022-12-24T00:35:20;9.70;;;7.63;;
16115;SDS011;8162;47.104;15.432;2022-12-24T00:37:47;11.03;;;7.57;;
16115;SDS011;8162;47.104;15.432;2022-12-24T00:40:14;9.17;;;6.97;;
16115;SDS011;8162;47.104;15.432;2022-12-24T00:42:40;8.33;;;6.67;;
16115;SDS011;8162;47.104;15.432;2022-12-24T00:45:06;10.90;;;6.60;;
16115;SDS011;8162;47.104;15.432;2022-12-24T00:47:33;7.93;;;6.47;;
16115;SDS011;8162;47.104;15.432;2022-12-24T00:49:58;6.13;;;5.13;;
16115;SDS011;8162;47.104;15.432;2022-12-24T00:52:24;5.93;;;5.30;;
16115;SDS011;8162;47.104;15.432;2022-12-24T00:54:50;5.83;;;4.63;;
16115;SDS011;8162;47.104;15.432;2022-12-24T00:57:16;5.23;;;4.57;;
16115;SDS011;8162;47.104;15.432;2022-12-24T00:59:41;7.13;;;4.73;;
16115;SDS011;8162;47.104;15.432;2022-12-24T01:02:07;6.73;;;5.37;;
16115;SDS011;8162;47.104;15.432;2022-12-24T01:04:33;6.23;;;4.90;;
16115;SDS011;8162;47.104;15.432;2022-12-24T01:07:17;8.33;;;5.77;;
16115;SDS011;8162;47.104;15.432;2022-12-24T01:09:43;6.30;;;4.80;;
16115;SDS011;8162;47.104;15.432;2022-12-24T01:12:09;5.63;;;4.27;;
16115;SDS011;8162;47.104;15.432;2022-12-24T01:14:35;5.33;;;4.73;;
16115;SDS011;8162;47.104;15.432;2022-12-24T01:17:01;7.00;;;4.73;;
16115;SDS011;8162;47.104;15.432;2022-12-24T01:19:27;6.10;;;4.83;;
16115;SDS011;8162;47.104;15.432;2022-12-24T01:21:53;7.00;;;5.40;;
16115;SDS011;8162;47.104;15.432;2022-12-24T01:24:18;5.60;;;4.13;;
16115;SDS011;8162;47.104;15.432;2022-12-24T01:26:44;5.10;;;4.13;;
16115;SDS011;8162;47.104;15.432;2022-12-24T01:29:10;4.60;;;3.70;;
16115;SDS011;8162;47.104;15.432;2022-12-24T01:31:35;4.83;;;3.97;;
16115;SDS011;8162;47.104;15.432;2022-12-24T01:34:01;6.60;;;4.10;;
16115;SDS011;8162;47.104;15.432;2022-12-24T01:36:27;6.03;;;4.40;;
16115;SDS011;8162;47.104;15.432;2022-12-24T01:38:53;5.60;;;4.90;;
16115;SDS011;8162;47.104;15.432;2022-12-24T01:41:20;6.47;;;4.70;;
16115;SDS011;8162;47.104;15.432;2022-12-24T01:44:24;5.50;;;4.07;;
16115;SDS011;8162;47.104;15.432;2022-12-24T01:47:38;6.00;;;4.57;;
16115;SDS011;8162;47.104;15.432;2022-12-24T01:49:55;6.10;;;4.60;;
16115;SDS011;8162;47.104;15.432;2022-12-24T01:52:25;4.53;;;3.80;;
16115;SDS011;8162;47.104;15.432;2022-12-24T01:54:55;6.17;;;4.83;;
16115;SDS011;8162;47.104;15.432;2022-12-24T01:57:33;5.60;;;4.57;;
16115;SDS011;8162;47.104;15.432;2022-12-24T02:00:11;7.43;;;4.70;;
16115;SDS011;8162;47.104;15.432;2022-12-24T02:02:42;6.20;;;4.43;;
16115;SDS011;8162;47.104;15.432;2022-12-24T02:08:18;6.37;;;4.13;;
16115;SDS011;8162;47.104;15.432;2022-12-24T02:10:45;5.77;;;3.70;;
16115;SDS011;8162;47.104;15.432;2022-12-24T02:13:11;6.17;;;3.97;;
16115;SDS011;8162;47.104;15.432;2022-12-24T02:27:27;4.80;;;3.70;;
16115;SDS011;8162;47.104;15.432;2022-12-24T02:38:16;5.40;;;3.97;;
16115;SDS011;8162;47.104;15.432;2022-12-24T02:40:58;5.77;;;3.93;;
16115;SDS011;8162;47.104;15.432;2022-12-24T02:43:32;3.73;;;3.10;;
16115;SDS011;8162;47.104;15.432;2022-12-24T02:46:03;4.17;;;3.13;;
16115;SDS011;8162;47.104;15.432;2022-12-24T02:48:33;5.43;;;3.90;;
16115;SDS011;8162;47.104;15.432;2022-12-24T02:51:03;3.60;;;3.30;;
16115;SDS011;8162;47.104;15.432;2022-12-24T02:53:32;6.20;;;3.20;;
16115;SDS011;8162;47.104;15.432;2022-12-24T02:56:09;4.43;;;3.40;;
16115;SDS011;8162;47.104;15.432;2022-12-24T03:06:43;3.43;;;3.00;;
16115;SDS011;8162;47.104;15.432;2022-12-24T03:12:09;3.70;;;3.03;;
16115;SDS011;8162;47.104;15.432;2022-12-24T03:14:39;4.37;;;3.47;;
16115;SDS011;8162;47.104;15.432;2022-12-24T03:17:06;6.60;;;3.20;;
16115;SDS011;8162;47.104;15.432;2022-12-24T03:19:32;5.87;;;3.23;;
16115;SDS011;8162;47.104;15.432;2022-12-24T03:21:59;4.03;;;2.97;;
16115;SDS011;8162;47.104;15.432;2022-12-24T03:24:28;4.10;;;3.27;;
16115;SDS011;8162;47.104;15.432;2022-12-24T03:26:54;6.83;;;3.00;;
16115;SDS011;8162;47.104;15.432;2022-12-24T03:29:20;4.40;;;2.93;;
16115;SDS011;8162;47.104;15.432;2022-12-24T03:31:47;4.00;;;2.80;;
16115;SDS011;8162;47.104;15.432;2022-12-24T03:34:15;4.70;;;3.20;;
16115;SDS011;8162;47.104;15.432;2022-12-24T03:36:41;3.63;;;3.00;;
16115;SDS011;8162;47.104;15.432;2022-12-24T03:39:07;3.40;;;2.50;;
16115;SDS011;8162;47.104;15.432;2022-12-24T03:41:34;3.30;;;2.60;;
16115;SDS011;8162;47.104;15.432;2022-12-24T03:44:00;3.40;;;3.10;;
16115;SDS011;8162;47.104;15.432;2022-12-24T03:46:26;4.43;;;3.47;;
16115;SDS011;8162;47.104;15.432;2022-12-24T03:48:52;5.83;;;3.87;;
16115;SDS011;8162;47.104;15.432;2022-12-24T03:51:22;6.30;;;4.80;;
16115;SDS011;8162;47.104;15.432;2022-12-24T03:53:51;6.40;;;4.57;;
16115;SDS011;8162;47.104;15.432;2022-12-24T03:56:17;6.43;;;4.70;;
16115;SDS011;8162;47.104;15.432;2022-12-24T03:58:44;6.73;;;4.33;;
16115;SDS011;8162;47.104;15.432;2022-12-24T04:01:10;6.80;;;5.10;;
16115;SDS011;8162;47.104;15.432;2022-12-24T04:03:35;7.50;;;5.20;;
16115;SDS011;8162;47.104;15.432;2022-12-24T04:06:02;8.90;;;5.10;;
16115;SDS011;8162;47.104;15.432;2022-12-24T04:08:32;5.77;;;4.27;;
16115;SDS011;8162;47.104;15.432;2022-12-24T04:10:59;5.90;;;4.07;;
16115;SDS011;8162;47.104;15.432;2022-12-24T04:13:25;4.87;;;4.10;;
16115;SDS011;8162;47.104;15.432;2022-12-24T04:15:58;5.77;;;4.27;;
16115;SDS011;8162;47.104;15.432;2022-12-24T04:18:25;7.17;;;4.97;;
16115;SDS011;8162;47.104;15.432;2022-12-24T04:20:51;6.23;;;4.17;;
16115;SDS011;8162;47.104;15.432;2022-12-24T04:23:17;5.10;;;3.97;;
16115;SDS011;8162;47.104;15.432;2022-12-24T04:25:43;5.37;;;4.23;;
16115;SDS011;8162;47.104;15.432;2022-12-24T04:28:09;7.20;;;4.40;;
16115;SDS011;8162;47.104;15.432;2022-12-24T04:30:36;4.87;;;3.97;;
16115;SDS011;8162;47.104;15.432;2022-12-24T04:33:02;4.83;;;3.63;;
16115;SDS011;8162;47.104;15.432;2022-12-24T04:35:28;5.17;;;4.17;;
16115;SDS011;8162;47.104;15.432;2022-12-24T04:37:54;4.37;;;3.97;;
16115;SDS011;8162;47.104;15.432;2022-12-24T04:40:19;4.63;;;4.07;;
16115;SDS011;8162;47.104;15.432;2022-12-24T04:42:45;5.13;;;3.50;;
16115;SDS011;8162;47.104;15.432;2022-12-24T04:45:11;6.13;;;4.83;;
16115;SDS011;8162;47.104;15.432;2022-12-24T04:47:36;6.37;;;4.20;;
16115;SDS011;8162;47.104;15.432;2022-12-24T04:50:02;6.03;;;4.30;;
16115;SDS011;8162;47.104;15.432;2022-12-24T04:52:28;7.03;;;4.50;;
16115;SDS011;8162;47.104;15.432;2022-12-24T04:54:54;7.23;;;4.90;;
16115;SDS011;8162;47.104;15.432;2022-12-24T04:57:19;6.97;;;4.73;;
16115;SDS011;8162;47.104;15.432;2022-12-24T04:59:45;6.53;;;3.73;;
16115;SDS011;8162;47.104;15.432;2022-12-24T05:02:11;5.70;;;4.40;;
16115;SDS011;8162;47.104;15.432;2022-12-24T05:04:37;7.97;;;4.20;;
16115;SDS011;8162;47.104;15.432;2022-12-24T05:07:02;5.37;;;4.03;;
16115;SDS011;8162;47.104;15.432;2022-12-24T05:09:28;4.40;;;3.83;;
16115;SDS011;8162;47.104;15.432;2022-12-24T05:11:54;5.77;;;4.00;;
16115;SDS011;8162;47.104;15.432;2022-12-24T05:14:20;4.33;;;3.63;;
16115;SDS011;8162;47.104;15.432;2022-12-24T05:16:45;8.17;;;4.47;;
16115;SDS011;8162;47.104;15.432;2022-12-24T05:19:11;5.63;;;4.67;;
16115;SDS011;8162;47.104;15.432;2022-12-24T05:21:37;6.63;;;5.03;;
16115;SDS011;8162;47.104;15.432;2022-12-24T05:24:03;5.10;;;4.30;;
16115;SDS011;8162;47.104;15.432;2022-12-24T05:26:48;7.33;;;4.50;;
16115;SDS011;8162;47.104;15.432;2022-12-24T05:29:18;6.23;;;4.10;;
16115;SDS011;8162;47.104;15.432;2022-12-24T05:31:45;7.73;;;5.33;;
16115;SDS011;8162;47.104;15.432;2022-12-24T05:34:11;7.00;;;4.70;;
16115;SDS011;8162;47.104;15.432;2022-12-24T05:36:38;8.87;;;4.70;;
16115;SDS011;8162;47.104;15.432;2022-12-24T05:39:04;6.53;;;4.83;;
16115;SDS011;8162;47.104;15.432;2022-12-24T05:41:31;5.43;;;3.83;;
16115;SDS011;8162;47.104;15.432;2022-12-24T05:43:56;6.13;;;4.73;;
16115;SDS011;8162;47.104;15.432;2022-12-24T05:46:22;8.47;;;4.90;;
16115;SDS011;8162;47.104;15.432;2022-12-24T05:48:49;8.63;;;4.63;;
16115;SDS011;8162;47.104;15.432;2022-12-24T05:51:16;7.27;;;4.57;;
16115;SDS011;8162;47.104;15.432;2022-12-24T05:53:43;7.50;;;4.63;;
16115;SDS011;8162;47.104;15.432;2022-12-24T05:56:11;7.60;;;4.17;;
16115;SDS011;8162;47.104;15.432;2022-12-24T05:58:39;8.67;;;4.30;;
16115;SDS011;8162;47.104;15.432;2022-12-24T06:01:06;6.30;;;4.90;;
16115;SDS011;8162;47.104;15.432;2022-12-24T06:03:33;7.23;;;4.70;;
16115;SDS011;8162;47.104;15.432;2022-12-24T06:05:59;6.07;;;4.40;;
16115;SDS011;8162;47.104;15.432;2022-12-24T06:08:27;5.87;;;4.33;;
16115;SDS011;8162;47.104;15.432;2022-12-24T06:10:55;4.93;;;4.10;;
16115;SDS011;8162;47.104;15.432;2022-12-24T06:13:21;4.90;;;3.73;;
16115;SDS011;8162;47.104;15.432;2022-12-24T06:15:47;7.13;;;3.97;;
16115;SDS011;8162;47.104;15.432;2022-12-24T06:18:13;5.03;;;3.90;;
16115;SDS011;8162;47.104;15.432;2022-12-24T06:20:39;6.60;;;4.30;;
16115;SDS011;8162;47.104;15.432;2022-12-24T06:23:04;5.27;;;4.00;;
16115;SDS011;8162;47.104;15.432;2022-12-24T06:25:30;5.93;;;4.23;;
16115;SDS011;8162;47.104;15.432;2022-12-24T06:27:56;5.63;;;3.77;;
16115;SDS011;8162;47.104;15.432;2022-12-24T06:30:21;6.37;;;4.17;;
16115;SDS011;8162;47.104;15.432;2022-12-24T06:32:48;7.50;;;5.37;;
16115;SDS011;8162;47.104;15.432;2022-12-24T06:35:14;6.57;;;5.30;;
16115;SDS011;8162;47.104;15.432;2022-12-24T06:37:39;6.73;;;4.60;;
16115;SDS011;8162;47.104;15.432;2022-12-24T06:40:05;6.63;;;5.27;;
16115;SDS011;8162;47.104;15.432;2022-12-24T06:42:31;7.07;;;4.93;;
16115;SDS011;8162;47.104;15.432;2022-12-24T06:44:57;6.57;;;4.70;;
16115;SDS011;8162;47.104;15.432;2022-12-24T06:47:23;6.27;;;4.77;;
16115;SDS011;8162;47.104;15.432;2022-12-24T06:49:49;6.27;;;4.30;;
16115;SDS011;8162;47.104;15.432;2022-12-24T06:52:14;7.83;;;5.83;;
16115;SDS011;8162;47.104;15.432;2022-12-24T06:54:40;10.90;;;5.93;;
16115;SDS011;8162;47.104;15.432;2022-12-24T06:57:06;9.70;;;5.67;;
16115;SDS011;8162;47.104;15.432;2022-12-24T06:59:31;6.60;;;4.87;;
16115;SDS011;8162;47.104;15.432;2022-12-24T07:01:57;7.33;;;6.13;;
16115;SDS011;8162;47.104;15.432;2022-12-24T07:04:23;6.43;;;5.37;;
16115;SDS011;8162;47.104;15.432;2022-12-24T07:06:48;5.77;;;4.40;;
16115;SDS011;8162;47.104;15.432;2022-12-24T07:09:14;7.57;;;5.70;;
16115;SDS011;8162;47.104;15.432;2022-12-24T07:11:40;8.90;;;5.47;;
16115;SDS011;8162;47.104;15.432;2022-12-24T07:14:05;6.43;;;5.83;;
16115;SDS011;8162;47.104;15.432;2022-12-24T07:16:31;7.57;;;6.13;;
16115;SDS011;8162;47.104;15.432;2022-12-24T07:18:57;8.33;;;6.20;;
16115;SDS011;8162;47.104;15.432;2022-12-24T07:21:22;7.77;;;5.50;;
16115;SDS011;8162;47.104;15.432;2022-12-24T07:23:48;8.03;;;6.00;;
16115;SDS011;8162;47.104;15.432;2022-12-24T07:26:14;7.53;;;6.10;;
16115;SDS011;8162;47.104;15.432;2022-12-24T07:28:39;7.43;;;5.83;;
16115;SDS011;8162;47.104;15.432;2022-12-24T07:31:05;6.10;;;5.27;;
16115;SDS011;8162;47.104;15.432;2022-12-24T07:33:31;7.13;;;5.57;;
16115;SDS011;8162;47.104;15.432;2022-12-24T07:36:00;8.17;;;5.33;;
16115;SDS011;8162;47.104;15.432;2022-12-24T07:38:28;5.97;;;4.47;;
16115;SDS011;8162;47.104;15.432;2022-12-24T07:40:54;7.67;;;5.13;;
16115;SDS011;8162;47.104;15.432;2022-12-24T07:43:20;6.17;;;4.30;;
16115;SDS011;8162;47.104;15.432;2022-12-24T07:45:46;7.20;;;4.67;;
16115;SDS011;8162;47.104;15.432;2022-12-24T07:48:12;9.13;;;5.33;;
16115;SDS011;8162;47.104;15.432;2022-12-24T07:50:37;6.70;;;4.93;;
16115;SDS011;8162;47.104;15.432;2022-12-24T07:53:03;8.03;;;5.60;;
16115;SDS011;8162;47.104;15.432;2022-12-24T07:55:29;7.77;;;5.50;;
16115;SDS011;8162;47.104;15.432;2022-12-24T07:57:54;8.47;;;5.67;;
16115;SDS011;8162;47.104;15.432;2022-12-24T08:00:20;9.87;;;5.37;;
16115;SDS011;8162;47.104;15.432;2022-12-24T08:02:46;8.60;;;6.63;;
16115;SDS011;8162;47.104;15.432;2022-12-24T08:05:11;6.23;;;5.40;;
16115;SDS011;8162;47.104;15.432;2022-12-24T08:07:37;7.13;;;5.83;;
16115;SDS011;8162;47.104;15.432;2022-12-24T08:10:03;10.33;;;6.47;;
16115;SDS011;8162;47.104;15.432;2022-12-24T08:12:29;9.17;;;6.53;;
16115;SDS011;8162;47.104;15.432;2022-12-24T08:14:55;6.83;;;5.87;;
16115;SDS011;8162;47.104;15.432;2022-12-24T08:17:20;9.83;;;7.73;;
16115;SDS011;8162;47.104;15.432;2022-12-24T08:19:46;8.80;;;7.63;;
16115;SDS011;8162;47.104;15.432;2022-12-24T08:22:12;11.27;;;7.60;;
16115;SDS011;8162;47.104;15.432;2022-12-24T08:24:37;10.77;;;6.57;;
16115;SDS011;8162;47.104;15.432;2022-12-24T08:27:03;8.40;;;6.07;;
16115;SDS011;8162;47.104;15.432;2022-12-24T08:29:29;8.13;;;6.33;;
16115;SDS011;8162;47.104;15.432;2022-12-24T08:31:54;9.93;;;5.47;;
16115;SDS011;8162;47.104;15.432;2022-12-24T08:34:20;10.00;;;8.03;;
16115;SDS011;8162;47.104;15.432;2022-12-24T08:36:46;9.40;;;7.13;;
16115;SDS011;8162;47.104;15.432;2022-12-24T08:39:11;9.00;;;7.57;;
16115;SDS011;8162;47.104;15.432;2022-12-24T08:41:37;9.90;;;8.23;;
16115;SDS011;8162;47.104;15.432;2022-12-24T08:44:03;11.27;;;9.40;;
16115;SDS011;8162;47.104;15.432;2022-12-24T08:46:28;8.20;;;6.87;;
16115;SDS011;8162;47.104;15.432;2022-12-24T08:48:54;12.60;;;9.07;;
16115;SDS011;8162;47.104;15.432;2022-12-24T08:51:20;12.80;;;10.17;;
16115;SDS011;8162;47.104;15.432;2022-12-24T08:53:45;15.57;;;13.83;;
16115;SDS011;8162;47.104;15.432;2022-12-24T08:56:11;15.27;;;13.40;;
16115;SDS011;8162;47.104;15.432;2022-12-24T08:58:37;14.60;;;13.10;;
16115;SDS011;8162;47.104;15.432;2022-12-24T09:01:14;9.93;;;8.87;;
16115;SDS011;8162;47.104;15.432;2022-12-24T09:03:42;12.20;;;10.60;;
16115;SDS011;8162;47.104;15.432;2022-12-24T09:06:08;11.93;;;10.03;;
16115;SDS011;8162;47.104;15.432;2022-12-24T09:08:34;11.17;;;8.77;;
16115;SDS011;8162;47.104;15.432;2022-12-24T09:11:01;10.17;;;8.57;;
16115;SDS011;8162;47.104;15.432;2022-12-24T09:13:28;9.00;;;8.00;;
16115;SDS011;8162;47.104;15.432;2022-12-24T09:15:54;9.17;;;8.20;;
16115;SDS011;8162;47.104;15.432;2022-12-24T09:18:20;10.63;;;9.43;;
16115;SDS011;8162;47.104;15.432;2022-12-24T09:20:46;9.73;;;8.73;;
16115;SDS011;8162;47.104;15.432;2022-12-24T09:23:12;9.90;;;8.43;;
16115;SDS011;8162;47.104;15.432;2022-12-24T09:25:41;9.57;;;8.57;;
16115;SDS011;8162;47.104;15.432;2022-12-24T09:28:07;9.67;;;8.33;;
16115;SDS011;8162;47.104;15.432;2022-12-24T09:30:34;11.30;;;9.60;;
16115;SDS011;8162;47.104;15.432;2022-12-24T09:33:00;11.63;;;8.67;;
16115;SDS011;8162;47.104;15.432;2022-12-24T09:35:26;9.43;;;7.70;;
16115;SDS011;8162;47.104;15.432;2022-12-24T09:37:52;10.07;;;7.97;;
16115;SDS011;8162;47.104;15.432;2022-12-24T09:40:29;10.50;;;8.77;;
16115;SDS011;8162;47.104;15.432;2022-12-24T09:43:03;8.83;;;7.60;;
16115;SDS011;8162;47.104;15.432;2022-12-24T09:45:37;7.30;;;6.47;;
16115;SDS011;8162;47.104;15.432;2022-12-24T09:48:12;7.13;;;5.77;;
16115;SDS011;8162;47.104;15.432;2022-12-24T09:53:47;7.63;;;5.97;;
16115;SDS011;8162;47.104;15.432;2022-12-24T09:56:19;7.63;;;6.10;;
16115;SDS011;8162;47.104;15.432;2022-12-24T09:59:10;7.97;;;6.23;;
16115;SDS011;8162;47.104;15.432;2022-12-24T10:01:45;6.53;;;5.73;;
16115;SDS011;8162;47.104;15.432;2022-12-24T10:04:13;8.07;;;6.37;;
16115;SDS011;8162;47.104;15.432;2022-12-24T10:06:57;6.93;;;5.47;;
16115;SDS011;8162;47.104;15.432;2022-12-24T10:09:27;9.27;;;6.90;;
16115;SDS011;8162;47.104;15.432;2022-12-24T10:12:22;9.20;;;6.43;;
16115;SDS011;8162;47.104;15.432;2022-12-24T10:22:55;7.73;;;5.80;;
16115;SDS011;8162;47.104;15.432;2022-12-24T10:28:18;7.60;;;6.80;;
16115;SDS011;8162;47.104;15.432;2022-12-24T10:30:48;10.97;;;7.67;;
16115;SDS011;8162;47.104;15.432;2022-12-24T10:33:18;9.70;;;7.87;;
16115;SDS011;8162;47.104;15.432;2022-12-24T10:35:50;7.33;;;5.97;;
16115;SDS011;8162;47.104;15.432;2022-12-24T10:38:18;7.20;;;6.10;;
16115;SDS011;8162;47.104;15.432;2022-12-24T10:40:48;10.93;;;8.40;;
16115;SDS011;8162;47.104;15.432;2022-12-24T10:43:17;8.47;;;6.10;;
16115;SDS011;8162;47.104;15.432;2022-12-24T10:45:45;14.37;;;8.30;;
16115;SDS011;8162;47.104;15.432;2022-12-24T10:48:22;8.70;;;7.23;;
16115;SDS011;8162;47.104;15.432;2022-12-24T10:51:05;9.70;;;7.27;;
16115;SDS011;8162;47.104;15.432;2022-12-24T10:56:08;8.57;;;6.63;;
16115;SDS011;8162;47.104;15.432;2022-12-24T10:58:41;13.33;;;9.23;;
16115;SDS011;8162;47.104;15.432;2022-12-24T11:01:09;12.20;;;9.47;;
16115;SDS011;8162;47.104;15.432;2022-12-24T11:03:36;14.60;;;9.47;;
16115;SDS011;8162;47.104;15.432;2022-12-24T11:08:42;10.73;;;8.47;;
16115;SDS011;8162;47.104;15.432;2022-12-24T11:11:16;13.23;;;9.70;;
16115;SDS011;8162;47.104;15.432;2022-12-24T11:19:03;19.83;;;11.83;;
16115;SDS011;8162;47.104;15.432;2022-12-24T11:21:38;14.00;;;11.50;;
16115;SDS011;8162;47.104;15.432;2022-12-24T11:24:15;12.30;;;10.23;;
16115;SDS011;8162;47.104;15.432;2022-12-24T11:26:48;13.83;;;10.30;;
16115;SDS011;8162;47.104;15.432;2022-12-24T11:31:43;15.47;;;11.33;;
16115;SDS011;8162;47.104;15.432;2022-12-24T11:34:28;13.27;;;10.87;;
16115;SDS011;8162;47.104;15.432;2022-12-24T11:39:40;15.43;;;12.30;;
16115;SDS011;8162;47.104;15.432;2022-12-24T11:42:37;14.53;;;11.33;;
16115;SDS011;8162;47.104;15.432;2022-12-24T11:45:06;16.07;;;11.80;;
16115;SDS011;8162;47.104;15.432;2022-12-24T11:47:46;12.90;;;11.07;;
16115;SDS011;8162;47.104;15.432;2022-12-24T11:53:03;15.23;;;10.57;;
16115;SDS011;8162;47.104;15.432;2022-12-24T12:00:38;15.10;;;10.07;;
16115;SDS011;8162;47.104;15.432;2022-12-24T12:03:05;10.80;;;9.30;;
16115;SDS011;8162;47.104;15.432;2022-12-24T12:06:12;10.90;;;8.93;;
16115;SDS011;8162;47.104;15.432;2022-12-24T12:08:45;10.47;;;8.83;;
16115;SDS011;8162;47.104;15.432;2022-12-24T12:11:12;9.60;;;8.60;;
16115;SDS011;8162;47.104;15.432;2022-12-24T12:13:39;9.83;;;8.33;;
16115;SDS011;8162;47.104;15.432;2022-12-24T12:16:27;13.03;;;8.83;;
16115;SDS011;8162;47.104;15.432;2022-12-24T12:19:24;11.43;;;8.50;;
16115;SDS011;8162;47.104;15.432;2022-12-24T12:21:52;10.27;;;7.50;;
16115;SDS011;8162;47.104;15.432;2022-12-24T12:26:54;10.53;;;8.73;;
16115;SDS011;8162;47.104;15.432;2022-12-24T12:29:39;8.70;;;7.37;;
16115;SDS011;8162;47.104;15.432;2022-12-24T12:32:11;9.67;;;8.00;;
16115;SDS011;8162;47.104;15.432;2022-12-24T12:37:56;8.23;;;6.00;;
16115;SDS011;8162;47.104;15.432;2022-12-24T12:45:53;6.97;;;6.23;;
16115;SDS011;8162;47.104;15.432;2022-12-24T12:57:20;7.20;;;5.93;;
16115;SDS011;8162;47.104;15.432;2022-12-24T13:05:00;8.70;;;6.40;;
16115;SDS011;8162;47.104;15.432;2022-12-24T13:10:37;8.23;;;6.77;;
16115;SDS011;8162;47.104;15.432;2022-12-24T13:21:38;8.57;;;6.60;;
16115;SDS011;8162;47.104;15.432;2022-12-24T13:24:27;8.90;;;6.67;;
16115;SDS011;8162;47.104;15.432;2022-12-24T13:34:52;6.57;;;5.57;;
16115;SDS011;8162;47.104;15.432;2022-12-24T13:48:39;8.87;;;7.80;;
16115;SDS011;8162;47.104;15.432;2022-12-24T13:53:33;8.90;;;7.80;;
16115;SDS011;8162;47.104;15.432;2022-12-24T13:58:43;10.50;;;8.47;;
16115;SDS011;8162;47.104;15.432;2022-12-24T14:01:14;9.03;;;7.17;;
16115;SDS011;8162;47.104;15.432;2022-12-24T14:03:49;8.47;;;7.37;;
16115;SDS011;8162;47.104;15.432;2022-12-24T14:08:49;8.27;;;6.17;;
16115;SDS011;8162;47.104;15.432;2022-12-24T14:11:18;9.47;;;6.70;;
16115;SDS011;8162;47.104;15.432;2022-12-24T14:16:18;7.60;;;6.80;;
16115;SDS011;8162;47.104;15.432;2022-12-24T14:19:01;10.57;;;7.73;;
16115;SDS011;8162;47.104;15.432;2022-12-24T14:24:42;12.13;;;8.80;;
16115;SDS011;8162;47.104;15.432;2022-12-24T14:27:20;8.53;;;7.03;;
16115;SDS011;8162;47.104;15.432;2022-12-24T14:29:58;8.13;;;7.30;;
16115;SDS011;8162;47.104;15.432;2022-12-24T14:32:45;7.73;;;6.93;;
16115;SDS011;8162;47.104;15.432;2022-12-24T14:37:47;7.37;;;5.90;;
16115;SDS011;8162;47.104;15.432;2022-12-24T14:40:24;7.83;;;6.37;;
16115;SDS011;8162;47.104;15.432;2022-12-24T14:45:47;6.40;;;5.77;;
16115;SDS011;8162;47.104;15.432;2022-12-24T14:48:50;6.77;;;6.07;;
16115;SDS011;8162;47.104;15.432;2022-12-24T14:51:22;5.93;;;5.27;;
16115;SDS011;8162;47.104;15.432;2022-12-24T14:56:31;7.30;;;5.77;;
16115;SDS011;8162;47.104;15.432;2022-12-24T14:58:57;6.00;;;5.13;;
16115;SDS011;8162;47.104;15.432;2022-12-24T15:01:29;5.87;;;4.80;;
16115;SDS011;8162;47.104;15.432;2022-12-24T15:04:02;6.17;;;5.00;;
16115;SDS011;8162;47.104;15.432;2022-12-24T15:06:34;5.90;;;5.07;;
16115;SDS011;8162;47.104;15.432;2022-12-24T15:09:27;5.17;;;4.60;;
16115;SDS011;8162;47.104;15.432;2022-12-24T15:11:56;5.73;;;4.60;;
16115;SDS011;8162;47.104;15.432;2022-12-24T15:14:25;6.97;;;4.47;;
16115;SDS011;8162;47.104;15.432;2022-12-24T15:16:56;5.13;;;4.63;;
16115;SDS011;8162;47.104;15.432;2022-12-24T15:22:03;5.70;;;5.10;;
16115;SDS011;8162;47.104;15.432;2022-12-24T15:24:34;6.67;;;5.07;;
16115;SDS011;8162;47.104;15.432;2022-12-24T15:27:22;4.70;;;4.07;;
16115;SDS011;8162;47.104;15.432;2022-12-24T15:29:55;10.73;;;7.63;;
16115;SDS011;8162;47.104;15.432;2022-12-24T15:32:21;11.30;;;7.53;;
16115;SDS011;8162;47.104;15.432;2022-12-24T15:34:49;6.23;;;5.57;;
16115;SDS011;8162;47.104;15.432;2022-12-24T15:37:19;7.03;;;5.40;;
16115;SDS011;8162;47.104;15.432;2022-12-24T15:39:52;8.00;;;6.20;;
16115;SDS011;8162;47.104;15.432;2022-12-24T15:42:19;7.23;;;5.50;;
16115;SDS011;8162;47.104;15.432;2022-12-24T15:47:25;7.83;;;6.20;;
16115;SDS011;8162;47.104;15.432;2022-12-24T15:50:02;6.03;;;4.67;;
16115;SDS011;8162;47.104;15.432;2022-12-24T15:52:29;6.57;;;5.57;;
16115;SDS011;8162;47.104;15.432;2022-12-24T15:54:55;7.77;;;5.70;;
16115;SDS011;8162;47.104;15.432;2022-12-24T15:57:22;6.97;;;5.60;;
16115;SDS011;8162;47.104;15.432;2022-12-24T15:59:53;7.37;;;5.60;;
16115;SDS011;8162;47.104;15.432;2022-12-24T16:05:16;8.37;;;5.13;;
16115;SDS011;8162;47.104;15.432;2022-12-24T16:08:05;6.50;;;5.07;;
16115;SDS011;8162;47.104;15.432;2022-12-24T16:10:38;11.93;;;7.93;;
16115;SDS011;8162;47.104;15.432;2022-12-24T16:13:28;12.37;;;8.00;;
16115;SDS011;8162;47.104;15.432;2022-12-24T16:16:01;21.47;;;11.83;;
16115;SDS011;8162;47.104;15.432;2022-12-24T16:18:36;27.40;;;15.30;;
16115;SDS011;8162;47.104;15.432;2022-12-24T16:21:17;19.73;;;12.43;;
16115;SDS011;8162;47.104;15.432;2022-12-24T16:23:55;17.67;;;10.37;;
16115;SDS011;8162;47.104;15.432;2022-12-24T16:26:30;14.17;;;9.37;;
16115;SDS011;8162;47.104;15.432;2022-12-24T16:28:56;15.53;;;11.87;;
16115;SDS011;8162;47.104;15.432;2022-12-24T16:31:32;14.60;;;10.17;;
16115;SDS011;8162;47.104;15.432;2022-12-24T16:34:00;13.20;;;11.33;;
16115;SDS011;8162;47.104;15.432;2022-12-24T16:36:27;13.67;;;9.80;;
16115;SDS011;8162;47.104;15.432;2022-12-24T16:38:55;12.90;;;9.73;;
16115;SDS011;8162;47.104;15.432;2022-12-24T16:41:40;12.33;;;8.87;;
16115;SDS011;8162;47.104;15.432;2022-12-24T16:44:24;10.70;;;8.63;;
16115;SDS011;8162;47.104;15.432;2022-12-24T16:46:51;11.20;;;8.43;;
16115;SDS011;8162;47.104;15.432;2022-12-24T16:49:17;11.00;;;9.03;;
16115;SDS011;8162;47.104;15.432;2022-12-24T16:51:45;14.77;;;12.33;;
16115;SDS011;8162;47.104;15.432;2022-12-24T16:54:12;12.43;;;9.70;;
16115;SDS011;8162;47.104;15.432;2022-12-24T16:56:41;8.37;;;6.97;;
16115;SDS011;8162;47.104;15.432;2022-12-24T17:01:42;7.80;;;7.00;;
16115;SDS011;8162;47.104;15.432;2022-12-24T17:04:08;8.00;;;6.70;;
16115;SDS011;8162;47.104;15.432;2022-12-24T17:06:35;8.17;;;6.97;;
16115;SDS011;8162;47.104;15.432;2022-12-24T17:09:00;9.03;;;6.87;;
16115;SDS011;8162;47.104;15.432;2022-12-24T17:11:26;13.27;;;9.17;;
16115;SDS011;8162;47.104;15.432;2022-12-24T17:13:52;10.77;;;8.60;;
16115;SDS011;8162;47.104;15.432;2022-12-24T17:16:17;9.20;;;7.93;;
16115;SDS011;8162;47.104;15.432;2022-12-24T17:18:43;8.37;;;7.13;;
16115;SDS011;8162;47.104;15.432;2022-12-24T17:21:09;8.97;;;7.03;;
16115;SDS011;8162;47.104;15.432;2022-12-24T17:23:38;10.63;;;7.90;;
16115;SDS011;8162;47.104;15.432;2022-12-24T17:26:05;9.03;;;7.17;;
16115;SDS011;8162;47.104;15.432;2022-12-24T17:28:32;10.30;;;7.77;;
16115;SDS011;8162;47.104;15.432;2022-12-24T17:30:58;12.40;;;8.77;;
16115;SDS011;8162;47.104;15.432;2022-12-24T17:33:23;11.57;;;7.87;;
16115;SDS011;8162;47.104;15.432;2022-12-24T17:35:49;9.37;;;7.90;;